Aérodrome :
LOGIN :

S'inscrire | Disclaimer

   EN    FR    IT 

 










Légende :    VFR   VFR Marginal   IFR   IFR Intensif   IFR Très Intensif
Visi : 
Plafond : 
>= 8 km
>= 3000ft
5 à 8 km
1000 à 3000 ft
1500m à 5 km
500 à 1000 ft
800 à 1500m
200 à 500 ft
< 800m
< 200 ft
Symboles :   Orages  Brouillard  Fortes neiges  Fortes précipitations  Vent > 20 kt
SIGMETs :   Divers  Orages  Givrage  Turbulence  Onde Orograph.  Cendres Volcan.






- Altitude de l'aérodrome : 1910 ft
- Code IATA : RDZ


LFCR - Rodez

DERNIER METAR :
  • 180200Z AUTO 13007KT CAVOK 12/11 Q1015 TEMPO 3000 BR

METARs EXPIRÉS :
  • 180130Z AUTO 15009KT CAVOK 13/12 Q1015 TEMPO 3000 BR
  • 180100Z AUTO 15005KT CAVOK 11/11 Q1016 TEMPO 3000 BR
  • 180030Z AUTO 19003KT 140V230 CAVOK 10/09 Q1016 TEMPO 3000 BR
  • 180000Z AUTO 14005KT CAVOK 11/10 Q1016 TEMPO 3000 BR
  • 172330Z AUTO 14006KT CAVOK 11/11 Q1016 TEMPO 3000 BR

TAF TAF LFCR
Valide du 18 à 00h jusqu'au 19 à 00h UTC


172300Z 1800/1824 15005KT CAVOK
BECMG 1801/1803 VRB02KT
PROB40
TEMPO 1800/1806 3000 BR SCT001
BECMG 1806/1808 SCT016 BKN040
TEMPO 1807/1812 4000 -SHRA BKN012 BKN035TCU
BECMG 1812/1814 13007KT



MET'MAP, la Météo Aéronautique d'un coup d'oeil ! - Copyright ORBIFLY Décembre 2007 - Disclaimer

ORBIFLY MET'MAP TEAM :

Programmation & Développement : Alexandra Zaïnal
Conception & Développement : Baudouin d'Aumeries
Co-Programmation & Développement : Marc-Olivier Méhu
Soutien technique & logistique : Manuel Goepfert

Contact : metmap@orbifly.com




SOURCES & CREDITS :

   NOAA